Time;durP1;ratioP1;P1;durP2;ratioP2;P2;SDS_P1;SDS_P2;PMS_P1;PMS_P2;Temp;Humidity;BMP_temperature;BMP_pressure;BME280_temperature;BME280_humidity;BME280_pressure;Samples;Min_cycle;Max_cycle;Signal;HPM_P1;HPM_P2
2022/04/15 00:00:45;;;;;;;67.70;35.95;;;;;;;8.77;65.24;99161.02;4077668;85;22031;-86
2022/04/15 00:06:47;;;;;;;60.48;32.40;;;;;;;8.69;65.02;99165.33;4076863;86;21102;-85
2022/04/15 00:12:48;;;;;;;66.37;31.52;;;;;;;8.62;65.00;99171.98;4082641;86;21138;-85
2022/04/15 00:19:09;;;;;;;48.75;27.90;;;;;;;8.41;65.40;99177.77;4083470;86;20983;-85
2022/04/15 00:25:11;;;;;;;49.60;22.70;;;;;;;8.43;65.38;99182.30;4086583;85;20995;-86
2022/04/15 00:31:12;;;;;;;38.63;20.02;;;;;;;8.75;64.28;99161.97;4070999;86;20991;-85
2022/04/15 00:37:14;;;;;;;35.35;19.00;;;;;;;9.13;63.28;99159.80;4082828;85;21135;-86
2022/04/15 00:43:17;;;;;;;38.13;19.25;;;;;;;9.52;62.41;99150.38;4082236;86;21010;-86
2022/04/15 00:49:39;;;;;;;37.35;19.60;;;;;;;9.45;62.27;99163.33;4077564;86;21106;-86
2022/04/15 00:55:42;;;;;;;38.25;19.25;;;;;;;9.38;62.40;99159.69;4082427;86;21047;-86
2022/04/15 01:01:44;;;;;;;36.10;20.17;;;;;;;9.24;62.81;99158.03;4087369;86;21038;-86
2022/04/15 01:07:55;;;;;;;30.77;18.52;;;;;;;9.12;62.35;99168.56;4066655;85;21078;-86
2022/04/15 01:14:00;;;;;;;36.85;18.55;;;;;;;9.00;62.93;99167.36;4084198;86;21595;-85
2022/04/15 01:20:07;;;;;;;28.92;15.20;;;;;;;8.94;62.77;99158.44;4076647;85;21146;-86
2022/04/15 01:26:10;;;;;;;21.93;13.95;;;;;;;8.91;62.75;99148.24;4055419;85;21148;-85
2022/04/15 01:32:14;;;;;;;22.95;12.18;;;;;;;9.02;62.62;99143.78;4077063;85;21538;-85
2022/04/15 01:38:17;;;;;;;27.32;12.50;;;;;;;9.06;62.13;99145.43;4081545;86;21112;-85
2022/04/15 01:44:19;;;;;;;13.78;8.40;;;;;;;9.19;61.65;99155.02;4086047;86;21046;-85
2022/04/15 01:50:20;;;;;;;22.90;10.70;;;;;;;9.35;61.04;99148.09;4075959;85;21082;-85
2022/04/15 01:56:22;;;;;;;31.25;12.00;;;;;;;9.50;60.70;99157.58;4084973;86;21622;-85
2022/04/15 02:02:24;;;;;;;19.73;8.75;;;;;;;9.58;60.60;99155.75;4085684;85;21953;-86
2022/04/15 02:15:14;;;;;;;22.75;9.20;;;;;;;9.75;60.28;99147.63;4086729;85;21001;-86
2022/04/15 02:21:17;;;;;;;29.48;10.35;;;;;;;9.72;60.35;99160.66;4090732;85;21085;-84
2022/04/15 02:27:20;;;;;;;23.40;10.80;;;;;;;9.71;60.41;99154.99;4100555;85;21856;-85
2022/04/15 02:33:21;;;;;;;22.07;10.63;;;;;;;9.69;61.21;99156.72;4089759;85;21494;-85
2022/04/15 02:39:22;;;;;;;27.32;13.98;;;;;;;9.69;61.42;99160.03;4091679;85;21054;-85
2022/04/15 02:45:26;;;;;;;30.40;15.95;;;;;;;9.67;63.08;99163.69;4097015;85;21034;-85
2022/04/15 02:51:27;;;;;;;30.32;16.73;;;;;;;9.73;63.39;99157.56;4092730;85;21101;-84
2022/04/15 02:57:29;;;;;;;32.38;19.17;;;;;;;9.99;64.17;99165.03;4090900;85;21032;-85
2022/04/15 03:10:25;;;;;;;38.02;20.60;;;;;;;10.57;65.05;99175.91;4074358;85;21112;-86
2022/04/15 03:16:26;;;;;;;37.33;20.40;;;;;;;10.77;65.59;99169.13;4058432;86;21485;-86
2022/04/15 03:22:36;;;;;;;43.20;22.75;;;;;;;10.78;65.72;99174.23;4067469;86;21131;-85
2022/04/15 03:28:40;;;;;;;37.15;22.80;;;;;;;10.89;66.01;99178.47;4066139;85;21162;-85
2022/04/15 03:34:41;;;;;;;36.58;22.37;;;;;;;10.96;67.28;99196.38;4066611;86;21050;-85
2022/04/15 03:40:42;;;;;;;41.42;22.75;;;;;;;11.04;66.40;99189.80;4061048;86;21070;-85
2022/04/15 03:46:46;;;;;;;45.43;25.50;;;;;;;11.09;66.70;99189.47;4068060;86;22194;-85
2022/04/15 03:52:49;;;;;;;45.70;26.17;;;;;;;11.19;67.48;99195.67;4060193;86;21102;-86
2022/04/15 03:58:50;;;;;;;43.52;26.60;;;;;;;11.14;67.57;99194.63;4069749;86;22481;-85
2022/04/15 04:04:52;;;;;;;40.45;26.07;;;;;;;11.05;67.88;99204.52;4065973;86;21060;-85
2022/04/15 04:10:53;;;;;;;45.20;26.52;;;;;;;11.02;68.10;99217.56;4051962;85;21062;-84
2022/04/15 04:16:57;;;;;;;47.88;27.07;;;;;;;11.02;68.28;99236.73;4052139;86;21554;-85
2022/04/15 04:23:33;;;;;;;45.67;27.45;;;;;;;11.04;68.84;99241.84;4052652;86;20995;-85
2022/04/15 04:29:35;;;;;;;48.52;28.95;;;;;;;11.02;68.99;99254.55;4049590;86;21038;-84
2022/04/15 04:35:43;;;;;;;43.98;26.27;;;;;;;11.04;69.11;99248.69;4050646;87;21035;-85
2022/04/15 04:41:50;;;;;;;40.90;25.60;;;;;;;11.10;69.47;99248.00;4043422;87;22072;-85
2022/04/15 04:47:53;;;;;;;;;;;;;;;11.16;69.77;99258.07;4044903;86;21053;-85
2022/04/15 04:53:54;;;;;;;40.70;26.35;;;;;;;11.24;70.39;99258.95;4029320;88;20143;-86
2022/04/15 05:06:15;;;;;;;45.90;26.52;;;;;;;11.38;70.06;99268.14;4563002;76;23437;-86
2022/04/15 05:12:17;;;;;;;45.55;27.02;;;;;;;11.41;70.27;99270.13;4355150;80;20983;-86
2022/04/15 05:18:18;;;;;;;60.90;27.40;;;;;;;11.44;70.53;99278.97;4302161;81;20990;-87
2022/04/15 05:24:20;;;;;;;68.28;27.15;;;;;;;11.46;70.94;99280.77;4308418;82;21008;-86
2022/04/15 05:36:58;;;;;;;71.97;25.65;;;;;;;11.55;71.21;99309.25;4328448;82;21035;-86
2022/04/15 05:43:00;;;;;;;43.42;25.37;;;;;;;11.52;72.20;99309.43;4343439;80;21028;-86
2022/04/15 05:49:06;;;;;;;45.45;25.82;;;;;;;11.41;72.27;99304.97;4368991;80;20959;-85
2022/04/15 05:55:08;;;;;;;37.05;24.12;;;;;;;11.34;73.59;99295.30;4291298;81;20976;-86
2022/04/15 06:01:09;;;;;;;43.02;23.47;;;;;;;11.26;74.26;99303.98;4376534;80;21041;-86
2022/04/15 06:07:10;;;;;;;35.55;22.17;;;;;;;11.19;74.05;99305.84;4358821;80;21062;-86
2022/04/15 06:13:19;;;;;;;37.70;24.00;;;;;;;11.21;76.69;99304.33;4332346;80;21107;-86
2022/04/15 06:19:19;;;;;;;32.30;22.50;;;;;;;11.09;75.62;99300.43;4324398;81;20994;-86
2022/04/15 06:25:21;;;;;;;40.17;24.57;;;;;;;11.11;75.81;99299.48;4323047;81;20965;-87
2022/04/15 06:31:22;;;;;;;40.38;24.30;;;;;;;11.09;77.07;99307.28;4283708;81;20983;-88
2022/04/15 06:37:24;;;;;;;38.45;24.02;;;;;;;11.10;77.03;99326.69;4280859;80;21362;-87
2022/04/15 06:43:25;;;;;;;36.00;24.75;;;;;;;11.08;77.20;99322.95;4277395;81;21020;-89
2022/04/15 06:49:27;;;;;;;37.42;24.80;;;;;;;11.06;79.07;99317.04;4282731;81;21675;-88
2022/04/15 06:55:28;;;;;;;37.48;26.40;;;;;;;11.00;79.11;99320.47;4296526;81;22107;-88
2022/04/15 07:01:30;;;;;;;36.80;24.55;;;;;;;11.00;79.12;99321.83;4286645;81;21103;-88
2022/04/15 07:07:31;;;;;;;36.58;25.92;;;;;;;11.05;79.40;99312.73;4211638;82;21158;-87
2022/04/15 07:13:33;;;;;;;40.30;25.95;;;;;;;11.19;79.74;99314.87;4200125;82;21543;-88
2022/04/15 07:19:34;;;;;;;38.38;26.48;;;;;;;11.32;80.23;99315.42;4181802;83;21071;-88
2022/04/15 07:25:35;;;;;;;38.23;26.25;;;;;;;11.42;80.39;99307.33;4280558;81;21068;-87
2022/04/15 07:31:36;;;;;;;35.25;25.25;;;;;;;11.53;80.56;99315.11;4308276;80;22178;-88
2022/04/15 07:37:38;;;;;;;37.15;25.23;;;;;;;11.58;81.05;99336.72;4308071;80;21061;-87
2022/04/15 07:43:42;;;;;;;40.38;27.42;;;;;;;11.64;81.12;99337.20;4300217;80;21004;-88
2022/04/15 07:49:44;;;;;;;37.00;25.45;;;;;;;11.71;81.45;99340.04;4182865;84;21035;-87
2022/04/15 07:55:45;;;;;;;41.58;27.25;;;;;;;11.74;81.30;99337.34;4152363;83;21097;-88
2022/04/15 08:01:46;;;;;;;40.28;27.70;;;;;;;11.78;81.41;99348.33;4260859;82;21099;-87
2022/04/15 08:07:47;;;;;;;35.40;24.18;;;;;;;11.77;81.54;99353.05;4329200;80;21358;-87
2022/04/15 08:13:49;;;;;;;37.30;25.20;;;;;;;11.69;81.57;99352.75;4325464;80;21026;-87
2022/04/15 08:19:51;;;;;;;39.18;26.07;;;;;;;11.72;81.79;99355.32;4455792;79;21588;-86
2022/04/15 08:25:52;;;;;;;38.90;27.60;;;;;;;11.74;82.14;99356.55;4439903;77;21027;-86
2022/04/15 08:31:54;;;;;;;39.55;27.30;;;;;;;11.75;82.15;99355.94;4446376;79;21076;-87
2022/04/15 08:37:55;;;;;;;47.88;28.55;;;;;;;11.64;82.69;99362.67;4435465;79;21037;-87
2022/04/15 08:43:58;;;;;;;46.68;28.40;;;;;;;11.63;82.69;99361.11;4453661;79;21034;-87
2022/04/15 08:49:59;;;;;;;46.63;29.75;;;;;;;11.63;83.07;99369.91;4453643;79;21061;-88
2022/04/15 08:56:01;;;;;;;41.73;28.17;;;;;;;11.54;83.40;99369.37;4448762;79;21073;-89
2022/04/15 09:02:03;;;;;;;43.45;31.02;;;;;;;11.46;83.89;99371.23;4449782;79;21078;-88
2022/04/15 09:08:08;;;;;;;49.90;31.77;;;;;;;11.46;83.97;99366.32;4451218;79;21043;-87
2022/04/15 09:14:12;;;;;;;44.75;31.15;;;;;;;11.49;84.44;99368.31;4443235;79;22150;-88
2022/04/15 09:20:16;;;;;;;42.45;31.17;;;;;;;11.51;85.07;99365.41;4455192;79;21018;-89
2022/04/15 09:26:20;;;;;;;40.30;28.57;;;;;;;11.56;85.70;99357.46;4457170;79;21361;-87
2022/04/15 09:32:24;;;;;;;44.50;30.55;;;;;;;11.63;86.28;99354.25;4459452;79;20975;-88
2022/04/15 09:38:44;;;;;;;41.68;28.83;;;;;;;11.67;86.29;99349.59;4454333;78;22023;-87
2022/04/15 09:44:47;;;;;;;36.73;27.07;;;;;;;11.81;86.77;99345.64;4454733;77;21025;-88
2022/04/15 09:50:48;;;;;;;39.35;27.58;;;;;;;11.90;87.18;99348.10;4450796;79;21085;-88
2022/04/15 09:56:58;;;;;;;36.38;26.75;;;;;;;11.88;87.26;99342.99;4453798;78;21357;-87
2022/04/15 10:03:03;;;;;;;33.35;25.57;;;;;;;11.98;87.29;99337.42;4447496;79;21927;-87
2022/04/15 10:09:06;;;;;;;28.30;21.93;;;;;;;11.95;87.42;99331.31;4422232;78;20980;-87
2022/04/15 10:15:10;;;;;;;30.55;22.67;;;;;;;11.95;87.55;99347.78;4429738;79;21504;-88
2022/04/15 10:21:11;;;;;;;26.62;20.05;;;;;;;11.88;88.30;99340.83;4411812;79;20992;-88
2022/04/15 10:27:14;;;;;;;29.30;20.95;;;;;;;11.83;88.11;99336.47;4429339;79;21095;-87
2022/04/15 10:33:33;;;;;;;30.77;21.10;;;;;;;11.89;88.34;99343.77;4411156;78;21645;-87
2022/04/15 10:39:50;;;;;;;36.38;21.40;;;;;;;11.92;90.69;99355.36;4432673;79;21087;-87
2022/04/15 10:46:13;;;;;;;30.08;19.55;;;;;;;11.89;90.13;99347.88;4470074;79;21038;-87
2022/04/15 10:52:24;;;;;;;24.32;19.23;;;;;;;12.05;90.22;99335.53;4413649;79;21051;-86
2022/04/15 10:58:23;;;;;;;28.47;21.37;;;;;;;12.27;91.85;99335.95;4424522;79;21078;-88
2022/04/15 11:04:26;;;;;;;30.08;21.82;;;;;;;12.49;90.42;99340.48;4431789;79;21083;-88
2022/04/15 11:11:03;;;;;;;31.65;21.73;;;;;;;12.68;90.99;99331.98;4418667;79;21062;-87
2022/04/15 11:17:09;;;;;;;40.28;21.60;;;;;;;12.79;90.41;99343.66;4428291;79;21027;-87
2022/04/15 11:23:13;;;;;;;30.75;21.93;;;;;;;13.02;90.37;99327.17;4413371;79;20995;-87
2022/04/15 11:29:14;;;;;;;35.43;22.15;;;;;;;13.27;89.94;99334.19;4437681;79;21436;-87
2022/04/15 11:35:34;;;;;;;27.50;20.15;;;;;;;13.33;89.67;99329.31;4430592;79;21531;-87
2022/04/15 11:41:35;;;;;;;28.35;21.00;;;;;;;13.48;89.67;99325.48;4426859;79;21047;-87
2022/04/15 11:47:36;;;;;;;32.08;19.10;;;;;;;13.43;89.00;99327.22;4395671;78;21011;-87
2022/04/15 11:53:39;;;;;;;27.45;18.05;;;;;;;13.35;88.74;99318.73;4430464;79;21105;-87
2022/04/15 11:59:44;;;;;;;22.67;17.95;;;;;;;13.32;89.01;99326.38;4425905;79;21076;-86
2022/04/15 12:05:45;;;;;;;23.52;16.87;;;;;;;13.27;88.84;99321.23;4428321;79;21023;-86
2022/04/15 12:11:52;;;;;;;21.20;16.82;;;;;;;13.48;89.19;99312.31;4413822;79;21016;-87
2022/04/15 12:17:54;;;;;;;21.12;17.57;;;;;;;13.84;89.20;99302.41;4294997;82;21039;-87
2022/04/15 12:24:06;;;;;;;20.80;17.35;;;;;;;14.24;88.58;99295.84;4300900;81;21002;-87
2022/04/15 12:30:08;;;;;;;22.37;14.65;;;;;;;14.31;86.50;99283.47;4308143;81;21468;-88
2022/04/15 12:36:10;;;;;;;14.35;12.37;;;;;;;14.78;87.07;99269.29;4324136;80;21049;-87
2022/04/15 12:42:31;;;;;;;16.55;14.55;;;;;;;15.05;85.60;99267.64;4312399;81;21741;-87
2022/04/15 12:48:40;;;;;;;19.57;14.83;;;;;;;15.34;85.63;99266.97;4316197;80;21035;-87
2022/04/15 12:55:08;;;;;;;16.50;13.03;;;;;;;15.51;83.80;99258.66;4293612;81;21508;-86
2022/04/15 13:01:09;;;;;;;17.10;12.65;;;;;;;15.47;82.86;99258.48;4300274;81;21052;-87
2022/04/15 13:07:10;;;;;;;13.18;10.30;;;;;;;15.45;81.78;99244.30;4280010;81;21533;-87
2022/04/15 13:13:12;;;;;;;13.00;8.73;;;;;;;16.12;79.22;99235.61;4283582;82;21457;-86
2022/04/15 13:19:13;;;;;;;10.45;9.20;;;;;;;16.33;79.72;99221.64;4276957;82;21048;-87
2022/04/15 13:25:14;;;;;;;12.65;10.05;;;;;;;16.15;75.61;99214.88;4317527;80;21896;-86
2022/04/15 13:31:15;;;;;;;9.78;7.95;;;;;;;16.14;76.24;99213.31;4311505;81;21492;-85
2022/04/15 13:37:17;;;;;;;9.80;6.55;;;;;;;16.10;76.25;99222.20;4303155;82;21028;-87
2022/04/15 13:43:19;;;;;;;10.40;6.97;;;;;;;16.58;75.56;99210.60;4312141;81;21941;-88
2022/04/15 13:49:20;;;;;;;8.05;6.10;;;;;;;16.99;74.58;99196.74;4305915;81;21043;-86
2022/04/15 14:01:44;;;;;;;9.03;7.12;;;;;;;17.62;70.83;99175.80;4302098;81;21068;-86
2022/04/15 14:07:46;;;;;;;10.58;6.12;;;;;;;18.16;68.14;99167.63;4279978;81;21574;-86
2022/04/15 14:13:49;;;;;;;9.35;6.95;;;;;;;18.41;68.93;99161.09;4343153;80;21035;-86
2022/04/15 14:19:53;;;;;;;5.47;3.40;;;;;;;17.83;66.92;99176.27;4310228;81;21579;-87
2022/04/15 14:25:56;;;;;;;4.62;2.50;;;;;;;16.87;65.43;99195.88;4251714;83;21040;-87
2022/04/15 14:31:59;;;;;;;7.78;2.95;;;;;;;15.73;67.08;99201.37;4285866;82;21045;-87
2022/04/15 14:38:00;;;;;;;11.20;3.72;;;;;;;14.93;67.45;99196.98;4280131;82;21742;-88
2022/04/15 14:44:01;;;;;;;15.68;7.75;;;;;;;14.32;68.85;99240.18;4335234;80;20993;-87
2022/04/15 14:50:05;;;;;;;13.48;7.58;;;;;;;13.71;75.10;99233.01;4327816;81;21001;-87
2022/04/15 14:56:06;;;;;;;11.45;7.05;;;;;;;12.76;75.30;99237.28;4322527;81;21007;-86
2022/04/15 15:02:08;;;;;;;14.60;8.28;;;;;;;12.71;75.78;99257.66;4305523;81;20983;-87
2022/04/15 15:08:09;;;;;;;11.75;6.47;;;;;;;12.64;76.27;99267.22;4296671;81;21980;-87
2022/04/15 15:14:22;;;;;;;6.83;5.12;;;;;;;12.37;76.71;99269.97;4297180;80;20993;-87
2022/04/15 15:20:27;;;;;;;4.45;2.75;;;;;;;12.19;76.97;99278.05;4286860;81;20992;-86
2022/04/15 15:33:12;;;;;;;4.92;2.47;;;;;;;11.96;77.06;99282.13;4287564;81;21833;-86
2022/04/15 15:39:00;;;;;;;3.30;2.00;;;;;;;11.74;77.09;99283.06;4270631;81;21596;-87
2022/04/15 15:45:06;;;;;;;4.28;2.58;;;;;;;11.63;77.52;99297.23;4290862;80;21049;-87
2022/04/15 15:51:08;;;;;;;4.53;2.87;;;;;;;11.57;77.97;99308.30;4169437;81;10000099;-86
2022/04/15 15:57:10;;;;;;;7.53;4.78;;;;;;;11.63;79.35;99313.69;4298838;82;21005;-87
2022/04/15 16:03:13;;;;;;;9.00;4.47;;;;;;;11.42;79.13;99317.50;4268556;81;21111;-87
2022/04/15 16:09:14;;;;;;;7.47;5.30;;;;;;;11.35;79.57;99318.22;4280300;81;21104;-87
2022/04/15 16:15:15;;;;;;;7.90;5.80;;;;;;;11.22;80.05;99327.02;4263533;83;21562;-86
2022/04/15 16:21:17;;;;;;;9.50;6.72;;;;;;;11.06;81.08;99321.72;4221400;83;20999;-87
2022/04/15 16:27:20;;;;;;;10.25;7.03;;;;;;;10.94;81.46;99329.59;4193703;83;21020;-87
2022/04/15 16:33:22;;;;;;;10.80;7.35;;;;;;;10.88;83.08;99331.64;4208235;83;21094;-86
2022/04/15 16:39:23;;;;;;;14.78;8.20;;;;;;;10.80;83.14;99334.06;4216420;82;21919;-86
2022/04/15 16:45:25;;;;;;;13.75;9.33;;;;;;;10.91;83.30;99337.75;4218165;83;20984;-87
2022/04/15 16:51:27;;;;;;;16.00;9.58;;;;;;;10.96;83.41;99331.36;4099435;82;9999776;-86
2022/04/15 17:03:51;;;;;;;19.30;13.30;;;;;;;10.87;85.21;99339.05;4218041;83;21057;-86
2022/04/15 17:09:51;;;;;;;18.32;12.40;;;;;;;10.69;85.03;99342.68;4210740;83;21082;-86
2022/04/15 17:16:00;;;;;;;21.45;13.68;;;;;;;10.54;85.50;99343.63;4200041;83;21026;-86
2022/04/15 17:22:02;;;;;;;25.50;15.60;;;;;;;10.55;85.84;99349.30;4214036;83;21488;-87
2022/04/15 17:28:04;;;;;;;26.90;16.95;;;;;;;10.53;87.25;99355.14;4333339;80;21024;-87
2022/04/15 17:34:06;;;;;;;29.37;17.48;;;;;;;10.32;87.78;99357.49;4260984;80;21557;-87
2022/04/15 17:40:08;;;;;;;27.50;17.15;;;;;;;10.22;88.39;99354.58;4307844;80;20951;-86
2022/04/15 17:46:10;;;;;;;31.10;17.57;;;;;;;10.30;88.33;99355.72;4338734;80;21576;-86
2022/04/15 17:52:11;;;;;;;30.75;17.62;;;;;;;10.28;88.52;99361.33;4335867;79;20968;-86
2022/04/15 17:58:19;;;;;;;28.23;16.80;;;;;;;10.27;88.82;99361.13;4197383;83;21916;-86
2022/04/15 18:04:25;;;;;;;33.58;19.82;;;;;;;10.26;88.63;99366.36;4221493;81;21937;-86
2022/04/15 18:10:27;;;;;;;35.68;19.40;;;;;;;10.27;88.97;99374.23;4165876;83;21003;-86
2022/04/15 18:16:29;;;;;;;26.80;17.85;;;;;;;10.18;89.26;99370.92;4307214;81;21457;-86
2022/04/15 18:22:30;;;;;;;25.88;16.45;;;;;;;10.21;89.43;99377.03;4224613;81;9999968;-87
2022/04/15 18:28:33;;;;;;;29.23;18.67;;;;;;;10.21;89.59;99387.20;4294542;81;21032;-86
2022/04/15 18:34:35;;;;;;;30.85;19.00;;;;;;;10.23;89.68;99384.88;4305594;80;20955;-86
2022/04/15 18:40:36;;;;;;;28.17;19.40;;;;;;;10.23;89.65;99395.81;4301786;81;20985;-86
2022/04/15 18:46:39;;;;;;;34.35;22.93;;;;;;;10.21;89.74;99397.55;4295045;81;21580;-86
2022/04/15 18:52:41;;;;;;;38.17;24.37;;;;;;;10.22;90.12;99401.09;4295099;81;20969;-86
2022/04/15 18:58:42;;;;;;;43.70;27.87;;;;;;;10.16;90.27;99404.70;4310534;81;21964;-86
2022/04/15 19:04:44;;;;;;;43.20;29.48;;;;;;;10.15;90.41;99417.38;4299403;80;21100;-86
2022/04/15 19:10:55;;;;;;;43.85;28.73;;;;;;;10.13;90.62;99418.31;4284183;82;21044;-86
2022/04/15 19:16:56;;;;;;;46.50;27.98;;;;;;;10.06;90.92;99424.97;4288323;81;21521;-85
2022/04/15 19:22:57;;;;;;;40.52;27.22;;;;;;;10.05;91.05;99422.03;4288078;81;21048;-86
2022/04/15 19:28:59;;;;;;;38.02;24.65;;;;;;;10.04;91.12;99421.22;4314524;80;22128;-86
2022/04/15 19:35:00;;;;;;;36.65;24.23;;;;;;;10.02;91.31;99429.02;4290918;81;21013;-85
2022/04/15 19:41:02;;;;;;;28.67;20.15;;;;;;;9.97;91.38;99430.67;4287859;81;21039;-86
2022/04/15 19:47:05;;;;;;;30.15;20.40;;;;;;;9.90;91.50;99425.05;4296392;81;21618;-85
2022/04/15 19:53:07;;;;;;;30.02;20.10;;;;;;;9.87;91.40;99416.76;4292649;81;21049;-86
2022/04/15 20:05:28;;;;;;;34.10;22.05;;;;;;;9.74;91.48;99420.80;4292784;80;21617;-85
2022/04/15 20:11:30;;;;;;;37.95;23.55;;;;;;;9.73;91.52;99423.30;4303974;80;22087;-86
2022/04/15 20:17:31;;;;;;;38.13;25.00;;;;;;;9.72;91.67;99419.00;4307091;81;21011;-85
2022/04/15 20:23:32;;;;;;;37.25;23.07;;;;;;;9.64;91.68;99419.99;4307388;81;20981;-85
2022/04/15 20:29:33;;;;;;;38.85;25.30;;;;;;;9.50;91.18;99418.55;4212133;83;21034;-85
2022/04/15 20:35:35;;;;;;;37.88;24.00;;;;;;;9.45;92.00;99420.20;4206724;81;20989;-86
2022/04/15 20:41:37;;;;;;;34.90;23.52;;;;;;;9.45;92.10;99425.66;4216694;82;22279;-86
2022/04/15 20:47:38;;;;;;;35.13;24.90;;;;;;;9.41;92.28;99421.27;4232453;82;20999;-85
2022/04/15 20:53:40;;;;;;;32.45;21.97;;;;;;;9.42;92.29;99420.91;4217952;82;21068;-86
2022/04/15 20:59:41;;;;;;;34.08;23.25;;;;;;;9.40;92.23;99408.17;4238696;82;21013;-85
2022/04/15 21:05:42;;;;;;;38.35;24.80;;;;;;;9.34;92.15;99415.06;4227120;82;21085;-86
2022/04/15 21:11:45;;;;;;;35.65;24.98;;;;;;;9.29;92.19;99406.34;4207882;82;21097;-85
2022/04/15 21:17:46;;;;;;;36.53;25.62;;;;;;;9.24;92.15;99406.61;4195390;83;21072;-85
2022/04/15 21:23:49;;;;;;;38.67;27.07;;;;;;;9.24;92.26;99407.41;4193273;83;21048;-85
2022/04/15 21:29:50;;;;;;;43.20;27.98;;;;;;;9.23;92.36;99408.57;4202976;83;21048;-85
2022/04/15 21:35:51;;;;;;;38.48;27.17;;;;;;;9.19;92.13;99407.68;4276489;82;21028;-86
2022/04/15 21:41:56;;;;;;;39.58;27.20;;;;;;;9.15;92.29;99397.82;4284174;80;21863;-85
2022/04/15 21:47:59;;;;;;;38.78;25.80;;;;;;;9.06;92.41;99395.86;4266204;82;21009;-86
2022/04/15 21:54:00;;;;;;;35.65;24.72;;;;;;;9.04;92.28;99396.22;4269065;82;20962;-85
2022/04/15 22:00:12;;;;;;;36.85;21.82;;;;;;;8.95;92.45;99398.35;4262113;82;21036;-85
2022/04/15 22:06:12;;;;;;;32.20;19.62;;;;;;;8.89;92.32;99400.34;4272074;81;21009;-85
2022/04/15 22:12:16;;;;;;;33.92;20.08;;;;;;;8.78;92.41;99397.92;4307508;81;21610;-85
2022/04/15 22:18:18;;;;;;;31.70;18.40;;;;;;;8.71;92.42;99399.90;4306316;80;21589;-85
2022/04/15 22:24:20;;;;;;;33.25;19.48;;;;;;;8.63;92.16;99410.41;4306271;80;21041;-86
2022/04/15 22:30:23;;;;;;;35.38;19.73;;;;;;;8.57;92.39;99411.02;4316907;81;20973;-85
2022/04/15 22:36:24;;;;;;;25.00;15.95;;;;;;;8.51;92.20;99417.89;4306633;80;20955;-85
2022/04/15 22:42:27;;;;;;;23.65;15.55;;;;;;;8.48;91.94;99419.95;4302327;80;21014;-85
2022/04/15 22:48:29;;;;;;;25.23;15.93;;;;;;;8.40;92.26;99424.44;4306202;80;21001;-86
2022/04/15 23:00:53;;;;;;;26.68;16.77;;;;;;;8.25;92.10;99425.78;4294113;81;21011;-85
2022/04/15 23:06:55;;;;;;;28.98;17.62;;;;;;;8.20;92.49;99425.44;4309549;81;21082;-85
2022/04/15 23:12:56;;;;;;;31.07;19.02;;;;;;;8.27;92.60;99418.05;4285966;81;21018;-85
2022/04/15 23:18:58;;;;;;;26.10;17.60;;;;;;;8.25;92.42;99414.87;4299153;81;20939;-85
2022/04/15 23:25:03;;;;;;;27.17;18.20;;;;;;;8.22;92.45;99418.27;4289395;80;21074;-85
2022/04/15 23:31:04;;;;;;;22.32;16.95;;;;;;;8.14;92.16;99421.94;4298306;81;21013;-85
2022/04/15 23:37:09;;;;;;;28.65;18.02;;;;;;;8.09;92.62;99419.45;4299099;81;20964;-85
2022/04/15 23:43:12;;;;;;;26.10;16.82;;;;;;;8.04;92.37;99420.50;4296773;81;21013;-86
2022/04/15 23:49:14;;;;;;;33.20;18.77;;;;;;;7.99;92.54;99432.45;4286415;81;20997;-85
2022/04/15 23:55:15;;;;;;;33.65;19.92;;;;;;;7.95;92.58;99433.50;4289830;80;21924;-85
